sensor_id;sensor_type;location;lat;lon;timestamp;P1;durP1;ratioP1;P2;durP2;ratioP2
50165;SDS011;36071;48.140;11.516;2023-06-14T00:04:22;8.0;;;3.8;;
50165;SDS011;36071;48.140;11.516;2023-06-14T00:09:22;6.6;;;4.2;;
50165;SDS011;36071;48.140;11.516;2023-06-14T00:14:22;6.9;;;3.8;;
50165;SDS011;36071;48.140;11.516;2023-06-14T00:19:22;7.2;;;3.7;;
50165;SDS011;36071;48.140;11.516;2023-06-14T00:24:22;11.3;;;3.9;;
50165;SDS011;36071;48.140;11.516;2023-06-14T00:29:22;7.2;;;3.4;;
50165;SDS011;36071;48.140;11.516;2023-06-14T00:34:22;6.5;;;3.5;;
50165;SDS011;36071;48.140;11.516;2023-06-14T00:39:22;7.8;;;4.1;;
50165;SDS011;36071;48.140;11.516;2023-06-14T00:44:22;7.1;;;3.5;;
50165;SDS011;36071;48.140;11.516;2023-06-14T00:49:22;5.5;;;3.7;;
50165;SDS011;36071;48.140;11.516;2023-06-14T00:54:22;6.3;;;3.4;;
50165;SDS011;36071;48.140;11.516;2023-06-14T00:59:22;6.4;;;3.8;;
50165;SDS011;36071;48.140;11.516;2023-06-14T01:04:22;4.6;;;3.5;;
50165;SDS011;36071;48.140;11.516;2023-06-14T01:09:23;6.4;;;4.0;;
50165;SDS011;36071;48.140;11.516;2023-06-14T01:14:22;8.3;;;4.0;;
50165;SDS011;36071;48.140;11.516;2023-06-14T01:19:22;7.0;;;3.8;;
50165;SDS011;36071;48.140;11.516;2023-06-14T01:24:22;7.0;;;3.7;;
50165;SDS011;36071;48.140;11.516;2023-06-14T01:29:22;6.6;;;3.7;;
50165;SDS011;36071;48.140;11.516;2023-06-14T01:34:22;5.7;;;3.6;;
50165;SDS011;36071;48.140;11.516;2023-06-14T01:39:22;6.1;;;3.6;;
50165;SDS011;36071;48.140;11.516;2023-06-14T01:44:23;5.9;;;3.5;;
50165;SDS011;36071;48.140;11.516;2023-06-14T01:49:22;6.2;;;3.8;;
50165;SDS011;36071;48.140;11.516;2023-06-14T01:59:22;6.0;;;3.7;;
50165;SDS011;36071;48.140;11.516;2023-06-14T02:04:22;6.8;;;3.7;;
50165;SDS011;36071;48.140;11.516;2023-06-14T02:09:22;7.4;;;3.9;;
50165;SDS011;36071;48.140;11.516;2023-06-14T02:14:22;13.4;;;8.6;;
50165;SDS011;36071;48.140;11.516;2023-06-14T02:19:22;12.6;;;6.5;;
50165;SDS011;36071;48.140;11.516;2023-06-14T02:24:22;7.1;;;4.9;;
50165;SDS011;36071;48.140;11.516;2023-06-14T02:29:22;9.8;;;4.3;;
50165;SDS011;36071;48.140;11.516;2023-06-14T02:34:22;5.3;;;4.0;;
50165;SDS011;36071;48.140;11.516;2023-06-14T02:39:24;7.4;;;4.0;;
50165;SDS011;36071;48.140;11.516;2023-06-14T02:44:24;6.2;;;4.3;;
50165;SDS011;36071;48.140;11.516;2023-06-14T02:49:22;6.2;;;4.2;;
50165;SDS011;36071;48.140;11.516;2023-06-14T02:54:22;5.6;;;3.7;;
50165;SDS011;36071;48.140;11.516;2023-06-14T02:59:22;6.1;;;3.8;;
50165;SDS011;36071;48.140;11.516;2023-06-14T03:04:22;6.6;;;4.1;;
50165;SDS011;36071;48.140;11.516;2023-06-14T03:09:22;5.1;;;3.6;;
50165;SDS011;36071;48.140;11.516;2023-06-14T03:14:22;7.1;;;4.5;;
50165;SDS011;36071;48.140;11.516;2023-06-14T03:19:22;9.0;;;4.5;;
50165;SDS011;36071;48.140;11.516;2023-06-14T03:24:22;8.8;;;4.3;;
50165;SDS011;36071;48.140;11.516;2023-06-14T03:29:22;7.5;;;4.1;;
50165;SDS011;36071;48.140;11.516;2023-06-14T03:34:22;8.1;;;4.3;;
50165;SDS011;36071;48.140;11.516;2023-06-14T03:39:22;8.3;;;4.1;;
50165;SDS011;36071;48.140;11.516;2023-06-14T03:44:22;6.3;;;4.2;;
50165;SDS011;36071;48.140;11.516;2023-06-14T03:49:22;7.4;;;4.3;;
50165;SDS011;36071;48.140;11.516;2023-06-14T03:54:22;9.1;;;4.6;;
50165;SDS011;36071;48.140;11.516;2023-06-14T03:59:22;9.4;;;4.8;;
50165;SDS011;36071;48.140;11.516;2023-06-14T04:04:22;9.1;;;4.8;;
50165;SDS011;36071;48.140;11.516;2023-06-14T04:09:23;9.3;;;5.0;;
50165;SDS011;36071;48.140;11.516;2023-06-14T04:14:22;7.4;;;4.7;;
50165;SDS011;36071;48.140;11.516;2023-06-14T04:19:22;9.1;;;5.0;;
50165;SDS011;36071;48.140;11.516;2023-06-14T04:24:22;9.3;;;4.9;;
50165;SDS011;36071;48.140;11.516;2023-06-14T04:29:22;8.7;;;4.6;;
50165;SDS011;36071;48.140;11.516;2023-06-14T04:34:22;7.8;;;4.7;;
50165;SDS011;36071;48.140;11.516;2023-06-14T04:39:22;10.8;;;4.6;;
50165;SDS011;36071;48.140;11.516;2023-06-14T04:44:23;9.6;;;4.4;;
50165;SDS011;36071;48.140;11.516;2023-06-14T04:49:22;8.3;;;4.1;;
50165;SDS011;36071;48.140;11.516;2023-06-14T04:54:22;8.2;;;4.2;;
50165;SDS011;36071;48.140;11.516;2023-06-14T04:59:23;10.6;;;4.6;;
50165;SDS011;36071;48.140;11.516;2023-06-14T05:04:22;7.4;;;4.6;;
50165;SDS011;36071;48.140;11.516;2023-06-14T05:09:22;9.6;;;4.7;;
50165;SDS011;36071;48.140;11.516;2023-06-14T05:14:22;7.8;;;4.3;;
50165;SDS011;36071;48.140;11.516;2023-06-14T05:19:22;6.8;;;4.1;;
50165;SDS011;36071;48.140;11.516;2023-06-14T05:24:23;9.3;;;4.1;;
50165;SDS011;36071;48.140;11.516;2023-06-14T05:29:22;6.5;;;3.6;;
50165;SDS011;36071;48.140;11.516;2023-06-14T05:34:22;5.2;;;3.8;;
50165;SDS011;36071;48.140;11.516;2023-06-14T05:39:25;7.4;;;4.2;;
50165;SDS011;36071;48.140;11.516;2023-06-14T05:44:22;7.2;;;4.2;;
50165;SDS011;36071;48.140;11.516;2023-06-14T05:49:22;7.7;;;4.1;;
50165;SDS011;36071;48.140;11.516;2023-06-14T05:54:22;11.2;;;4.1;;
50165;SDS011;36071;48.140;11.516;2023-06-14T05:59:22;8.2;;;4.3;;
50165;SDS011;36071;48.140;11.516;2023-06-14T06:04:22;10.5;;;4.6;;
50165;SDS011;36071;48.140;11.516;2023-06-14T06:09:22;7.7;;;4.2;;
50165;SDS011;36071;48.140;11.516;2023-06-14T06:14:22;9.9;;;4.4;;
50165;SDS011;36071;48.140;11.516;2023-06-14T06:19:24;7.0;;;4.0;;
50165;SDS011;36071;48.140;11.516;2023-06-14T06:24:22;9.9;;;3.8;;
50165;SDS011;36071;48.140;11.516;2023-06-14T06:29:22;7.2;;;3.8;;
50165;SDS011;36071;48.140;11.516;2023-06-14T06:34:22;9.5;;;4.0;;
50165;SDS011;36071;48.140;11.516;2023-06-14T06:39:22;9.5;;;4.6;;
50165;SDS011;36071;48.140;11.516;2023-06-14T06:44:22;8.1;;;4.1;;
50165;SDS011;36071;48.140;11.516;2023-06-14T06:49:22;7.0;;;3.9;;
50165;SDS011;36071;48.140;11.516;2023-06-14T07:09:22;9.3;;;4.0;;
50165;SDS011;36071;48.140;11.516;2023-06-14T07:14:22;9.2;;;4.4;;
50165;SDS011;36071;48.140;11.516;2023-06-14T07:19:22;7.1;;;3.9;;
50165;SDS011;36071;48.140;11.516;2023-06-14T07:24:24;10.4;;;3.8;;
50165;SDS011;36071;48.140;11.516;2023-06-14T07:29:22;7.0;;;3.4;;
50165;SDS011;36071;48.140;11.516;2023-06-14T07:34:22;9.3;;;3.2;;
50165;SDS011;36071;48.140;11.516;2023-06-14T07:39:22;7.0;;;3.7;;
50165;SDS011;36071;48.140;11.516;2023-06-14T07:44:22;8.3;;;3.7;;
50165;SDS011;36071;48.140;11.516;2023-06-14T07:49:22;9.4;;;3.6;;
50165;SDS011;36071;48.140;11.516;2023-06-14T07:54:22;5.1;;;3.3;;
50165;SDS011;36071;48.140;11.516;2023-06-14T07:59:22;6.1;;;3.1;;
50165;SDS011;36071;48.140;11.516;2023-06-14T08:04:22;8.3;;;3.5;;
50165;SDS011;36071;48.140;11.516;2023-06-14T08:09:22;10.5;;;3.8;;
50165;SDS011;36071;48.140;11.516;2023-06-14T08:14:22;5.0;;;3.2;;
50165;SDS011;36071;48.140;11.516;2023-06-14T08:19:22;6.1;;;3.2;;
50165;SDS011;36071;48.140;11.516;2023-06-14T08:24:22;6.9;;;3.2;;
50165;SDS011;36071;48.140;11.516;2023-06-14T08:29:22;7.6;;;3.1;;
50165;SDS011;36071;48.140;11.516;2023-06-14T08:34:22;6.1;;;3.4;;
50165;SDS011;36071;48.140;11.516;2023-06-14T08:39:22;7.7;;;3.1;;
50165;SDS011;36071;48.140;11.516;2023-06-14T08:44:22;7.7;;;3.0;;
50165;SDS011;36071;48.140;11.516;2023-06-14T08:49:22;6.5;;;2.7;;
50165;SDS011;36071;48.140;11.516;2023-06-14T08:54:22;6.3;;;3.2;;
50165;SDS011;36071;48.140;11.516;2023-06-14T08:59:23;8.2;;;3.3;;
50165;SDS011;36071;48.140;11.516;2023-06-14T09:04:22;5.6;;;2.7;;
50165;SDS011;36071;48.140;11.516;2023-06-14T09:09:22;5.2;;;2.5;;
50165;SDS011;36071;48.140;11.516;2023-06-14T09:14:23;7.8;;;3.1;;
50165;SDS011;36071;48.140;11.516;2023-06-14T09:19:23;6.2;;;3.0;;
50165;SDS011;36071;48.140;11.516;2023-06-14T09:24:23;5.9;;;2.9;;
50165;SDS011;36071;48.140;11.516;2023-06-14T09:29:22;10.2;;;2.8;;
50165;SDS011;36071;48.140;11.516;2023-06-14T09:34:24;6.3;;;2.7;;
50165;SDS011;36071;48.140;11.516;2023-06-14T09:39:22;4.4;;;2.7;;
50165;SDS011;36071;48.140;11.516;2023-06-14T09:44:22;7.8;;;3.0;;
50165;SDS011;36071;48.140;11.516;2023-06-14T09:49:22;4.8;;;3.0;;
50165;SDS011;36071;48.140;11.516;2023-06-14T09:54:22;4.5;;;2.9;;
50165;SDS011;36071;48.140;11.516;2023-06-14T09:59:25;5.9;;;3.1;;
50165;SDS011;36071;48.140;11.516;2023-06-14T10:04:28;6.3;;;3.2;;
50165;SDS011;36071;48.140;11.516;2023-06-14T10:09:24;4.9;;;2.8;;
50165;SDS011;36071;48.140;11.516;2023-06-14T10:14:22;9.9;;;3.4;;
50165;SDS011;36071;48.140;11.516;2023-06-14T10:19:24;8.1;;;3.1;;
50165;SDS011;36071;48.140;11.516;2023-06-14T10:24:25;6.1;;;3.1;;
50165;SDS011;36071;48.140;11.516;2023-06-14T10:29:22;3.7;;;3.3;;
50165;SDS011;36071;48.140;11.516;2023-06-14T10:34:23;9.8;;;3.1;;
50165;SDS011;36071;48.140;11.516;2023-06-14T10:39:22;6.5;;;3.3;;
50165;SDS011;36071;48.140;11.516;2023-06-14T10:44:38;5.6;;;3.1;;
50165;SDS011;36071;48.140;11.516;2023-06-14T10:49:36;5.9;;;3.1;;
50165;SDS011;36071;48.140;11.516;2023-06-14T10:54:22;7.3;;;3.8;;
50165;SDS011;36071;48.140;11.516;2023-06-14T10:59:22;9.7;;;3.1;;
50165;SDS011;36071;48.140;11.516;2023-06-14T11:04:23;6.7;;;3.0;;
50165;SDS011;36071;48.140;11.516;2023-06-14T11:09:31;6.8;;;3.2;;
50165;SDS011;36071;48.140;11.516;2023-06-14T11:14:22;6.4;;;3.1;;
50165;SDS011;36071;48.140;11.516;2023-06-14T11:19:22;9.0;;;3.3;;
50165;SDS011;36071;48.140;11.516;2023-06-14T11:24:24;6.6;;;3.1;;
50165;SDS011;36071;48.140;11.516;2023-06-14T11:29:22;6.1;;;2.9;;
50165;SDS011;36071;48.140;11.516;2023-06-14T11:34:22;7.2;;;3.2;;
50165;SDS011;36071;48.140;11.516;2023-06-14T11:39:24;5.4;;;3.1;;
50165;SDS011;36071;48.140;11.516;2023-06-14T11:44:22;7.0;;;2.8;;
50165;SDS011;36071;48.140;11.516;2023-06-14T11:49:23;4.2;;;3.0;;
50165;SDS011;36071;48.140;11.516;2023-06-14T11:54:22;7.5;;;3.3;;
50165;SDS011;36071;48.140;11.516;2023-06-14T11:59:23;3.8;;;2.9;;
50165;SDS011;36071;48.140;11.516;2023-06-14T12:04:23;5.5;;;2.8;;
50165;SDS011;36071;48.140;11.516;2023-06-14T12:09:22;5.5;;;3.0;;
50165;SDS011;36071;48.140;11.516;2023-06-14T12:14:27;5.5;;;3.1;;
50165;SDS011;36071;48.140;11.516;2023-06-14T12:19:25;3.2;;;2.8;;
50165;SDS011;36071;48.140;11.516;2023-06-14T12:24:27;4.8;;;3.3;;
50165;SDS011;36071;48.140;11.516;2023-06-14T12:29:23;6.1;;;2.7;;
50165;SDS011;36071;48.140;11.516;2023-06-14T12:34:22;4.8;;;2.9;;
50165;SDS011;36071;48.140;11.516;2023-06-14T12:39:22;3.5;;;2.5;;
50165;SDS011;36071;48.140;11.516;2023-06-14T12:44:22;4.7;;;3.3;;
50165;SDS011;36071;48.140;11.516;2023-06-14T12:49:24;4.8;;;3.0;;
50165;SDS011;36071;48.140;11.516;2023-06-14T12:54:22;8.1;;;3.0;;
50165;SDS011;36071;48.140;11.516;2023-06-14T12:59:22;5.8;;;3.2;;
50165;SDS011;36071;48.140;11.516;2023-06-14T13:04:22;7.1;;;3.2;;
50165;SDS011;36071;48.140;11.516;2023-06-14T13:09:22;5.3;;;3.4;;
50165;SDS011;36071;48.140;11.516;2023-06-14T13:14:22;5.8;;;3.1;;
50165;SDS011;36071;48.140;11.516;2023-06-14T13:19:22;7.2;;;3.1;;
50165;SDS011;36071;48.140;11.516;2023-06-14T13:24:22;6.8;;;3.2;;
50165;SDS011;36071;48.140;11.516;2023-06-14T13:29:23;5.7;;;3.5;;
50165;SDS011;36071;48.140;11.516;2023-06-14T13:34:22;5.4;;;3.3;;
50165;SDS011;36071;48.140;11.516;2023-06-14T13:39:24;5.5;;;3.6;;
50165;SDS011;36071;48.140;11.516;2023-06-14T13:44:22;4.7;;;3.0;;
50165;SDS011;36071;48.140;11.516;2023-06-14T13:49:22;5.2;;;3.1;;
50165;SDS011;36071;48.140;11.516;2023-06-14T13:54:22;4.4;;;3.1;;
50165;SDS011;36071;48.140;11.516;2023-06-14T13:59:22;6.4;;;3.2;;
50165;SDS011;36071;48.140;11.516;2023-06-14T14:04:22;4.8;;;2.9;;
50165;SDS011;36071;48.140;11.516;2023-06-14T14:09:22;6.0;;;3.0;;
50165;SDS011;36071;48.140;11.516;2023-06-14T14:14:23;8.2;;;3.1;;
50165;SDS011;36071;48.140;11.516;2023-06-14T14:19:22;6.3;;;3.0;;
50165;SDS011;36071;48.140;11.516;2023-06-14T14:24:43;4.6;;;3.1;;
50165;SDS011;36071;48.140;11.516;2023-06-14T14:29:22;6.1;;;3.3;;
50165;SDS011;36071;48.140;11.516;2023-06-14T14:34:23;4.1;;;2.9;;
50165;SDS011;36071;48.140;11.516;2023-06-14T14:39:22;7.1;;;3.0;;
50165;SDS011;36071;48.140;11.516;2023-06-14T14:44:22;5.6;;;3.3;;
50165;SDS011;36071;48.140;11.516;2023-06-14T14:49:22;4.8;;;3.0;;
50165;SDS011;36071;48.140;11.516;2023-06-14T14:54:22;6.7;;;3.5;;
50165;SDS011;36071;48.140;11.516;2023-06-14T14:59:23;6.8;;;3.3;;
50165;SDS011;36071;48.140;11.516;2023-06-14T15:04:22;7.2;;;3.3;;
50165;SDS011;36071;48.140;11.516;2023-06-14T15:09:23;5.3;;;3.1;;
50165;SDS011;36071;48.140;11.516;2023-06-14T15:14:22;8.2;;;3.3;;
50165;SDS011;36071;48.140;11.516;2023-06-14T15:19:22;6.5;;;3.1;;
50165;SDS011;36071;48.140;11.516;2023-06-14T15:24:22;6.0;;;3.0;;
50165;SDS011;36071;48.140;11.516;2023-06-14T15:29:22;5.6;;;3.0;;
50165;SDS011;36071;48.140;11.516;2023-06-14T15:34:22;6.3;;;3.0;;
50165;SDS011;36071;48.140;11.516;2023-06-14T15:39:22;7.0;;;3.5;;
50165;SDS011;36071;48.140;11.516;2023-06-14T15:44:23;6.5;;;3.5;;
50165;SDS011;36071;48.140;11.516;2023-06-14T15:49:22;7.9;;;3.4;;
50165;SDS011;36071;48.140;11.516;2023-06-14T15:54:22;4.8;;;3.0;;
50165;SDS011;36071;48.140;11.516;2023-06-14T15:59:24;6.2;;;3.3;;
50165;SDS011;36071;48.140;11.516;2023-06-14T16:04:22;8.9;;;3.5;;
50165;SDS011;36071;48.140;11.516;2023-06-14T16:09:23;7.2;;;3.2;;
50165;SDS011;36071;48.140;11.516;2023-06-14T16:14:22;9.8;;;3.7;;
50165;SDS011;36071;48.140;11.516;2023-06-14T16:19:23;6.6;;;3.2;;
50165;SDS011;36071;48.140;11.516;2023-06-14T16:24:22;7.1;;;3.1;;
50165;SDS011;36071;48.140;11.516;2023-06-14T16:29:22;5.9;;;3.2;;
50165;SDS011;36071;48.140;11.516;2023-06-14T16:34:22;10.3;;;3.2;;
50165;SDS011;36071;48.140;11.516;2023-06-14T16:39:23;4.9;;;3.7;;
50165;SDS011;36071;48.140;11.516;2023-06-14T16:44:22;5.1;;;3.3;;
50165;SDS011;36071;48.140;11.516;2023-06-14T16:49:23;5.2;;;3.3;;
50165;SDS011;36071;48.140;11.516;2023-06-14T16:54:22;5.6;;;3.6;;
50165;SDS011;36071;48.140;11.516;2023-06-14T16:59:22;6.9;;;3.6;;
50165;SDS011;36071;48.140;11.516;2023-06-14T17:04:23;8.7;;;4.0;;
50165;SDS011;36071;48.140;11.516;2023-06-14T17:09:22;6.3;;;3.7;;
50165;SDS011;36071;48.140;11.516;2023-06-14T17:14:23;7.9;;;3.5;;
50165;SDS011;36071;48.140;11.516;2023-06-14T17:19:24;5.6;;;3.4;;
50165;SDS011;36071;48.140;11.516;2023-06-14T17:24:22;6.7;;;3.6;;
50165;SDS011;36071;48.140;11.516;2023-06-14T17:29:22;7.5;;;3.5;;
50165;SDS011;36071;48.140;11.516;2023-06-14T17:34:22;6.7;;;3.4;;
50165;SDS011;36071;48.140;11.516;2023-06-14T17:39:23;6.4;;;3.3;;
50165;SDS011;36071;48.140;11.516;2023-06-14T17:44:22;7.0;;;3.2;;
50165;SDS011;36071;48.140;11.516;2023-06-14T17:49:22;4.7;;;3.3;;
50165;SDS011;36071;48.140;11.516;2023-06-14T17:54:23;7.1;;;3.9;;
50165;SDS011;36071;48.140;11.516;2023-06-14T17:59:22;6.6;;;3.5;;
50165;SDS011;36071;48.140;11.516;2023-06-14T18:04:22;5.4;;;3.4;;
50165;SDS011;36071;48.140;11.516;2023-06-14T18:09:23;5.8;;;3.5;;
50165;SDS011;36071;48.140;11.516;2023-06-14T18:14:23;6.1;;;3.1;;
50165;SDS011;36071;48.140;11.516;2023-06-14T18:19:22;9.0;;;3.3;;
50165;SDS011;36071;48.140;11.516;2023-06-14T18:24:23;5.8;;;3.5;;
50165;SDS011;36071;48.140;11.516;2023-06-14T18:29:22;6.6;;;3.9;;
50165;SDS011;36071;48.140;11.516;2023-06-14T18:34:22;7.2;;;4.3;;
50165;SDS011;36071;48.140;11.516;2023-06-14T18:39:22;9.0;;;4.0;;
50165;SDS011;36071;48.140;11.516;2023-06-14T18:44:23;5.9;;;3.7;;
50165;SDS011;36071;48.140;11.516;2023-06-14T18:49:22;5.7;;;3.5;;
50165;SDS011;36071;48.140;11.516;2023-06-14T18:54:22;6.0;;;3.7;;
50165;SDS011;36071;48.140;11.516;2023-06-14T18:59:23;8.7;;;4.5;;
50165;SDS011;36071;48.140;11.516;2023-06-14T19:04:22;9.1;;;4.9;;
50165;SDS011;36071;48.140;11.516;2023-06-14T19:09:23;5.8;;;3.5;;
50165;SDS011;36071;48.140;11.516;2023-06-14T19:14:23;7.9;;;3.8;;
50165;SDS011;36071;48.140;11.516;2023-06-14T19:19:22;6.8;;;3.8;;
50165;SDS011;36071;48.140;11.516;2023-06-14T19:24:22;7.6;;;3.5;;
50165;SDS011;36071;48.140;11.516;2023-06-14T19:29:28;7.5;;;3.2;;
50165;SDS011;36071;48.140;11.516;2023-06-14T19:34:22;4.9;;;3.6;;
50165;SDS011;36071;48.140;11.516;2023-06-14T19:39:22;5.0;;;3.4;;
50165;SDS011;36071;48.140;11.516;2023-06-14T19:44:23;9.0;;;4.6;;
50165;SDS011;36071;48.140;11.516;2023-06-14T19:49:23;6.3;;;4.0;;
50165;SDS011;36071;48.140;11.516;2023-06-14T19:54:23;7.8;;;4.3;;
50165;SDS011;36071;48.140;11.516;2023-06-14T19:59:23;6.2;;;4.0;;
50165;SDS011;36071;48.140;11.516;2023-06-14T20:04:23;7.3;;;3.7;;
50165;SDS011;36071;48.140;11.516;2023-06-14T20:09:22;6.1;;;3.6;;
50165;SDS011;36071;48.140;11.516;2023-06-14T20:14:22;6.3;;;3.9;;
50165;SDS011;36071;48.140;11.516;2023-06-14T20:19:23;5.1;;;3.6;;
50165;SDS011;36071;48.140;11.516;2023-06-14T20:24:23;5.3;;;3.9;;
50165;SDS011;36071;48.140;11.516;2023-06-14T20:29:23;6.5;;;3.5;;
50165;SDS011;36071;48.140;11.516;2023-06-14T20:34:23;12.8;;;5.0;;
50165;SDS011;36071;48.140;11.516;2023-06-14T20:39:23;7.4;;;4.0;;
50165;SDS011;36071;48.140;11.516;2023-06-14T20:44:22;6.8;;;3.9;;
50165;SDS011;36071;48.140;11.516;2023-06-14T20:49:23;8.1;;;4.0;;
50165;SDS011;36071;48.140;11.516;2023-06-14T20:54:22;6.2;;;3.8;;
50165;SDS011;36071;48.140;11.516;2023-06-14T20:59:24;8.2;;;3.9;;
50165;SDS011;36071;48.140;11.516;2023-06-14T21:04:23;7.4;;;3.8;;
50165;SDS011;36071;48.140;11.516;2023-06-14T21:09:23;7.9;;;3.6;;
50165;SDS011;36071;48.140;11.516;2023-06-14T21:14:22;6.5;;;3.9;;
50165;SDS011;36071;48.140;11.516;2023-06-14T21:19:23;6.5;;;3.7;;
50165;SDS011;36071;48.140;11.516;2023-06-14T21:24:23;6.0;;;4.1;;
50165;SDS011;36071;48.140;11.516;2023-06-14T21:29:23;7.3;;;3.7;;
50165;SDS011;36071;48.140;11.516;2023-06-14T21:34:23;5.8;;;3.7;;
50165;SDS011;36071;48.140;11.516;2023-06-14T21:39:23;6.9;;;4.0;;
50165;SDS011;36071;48.140;11.516;2023-06-14T21:44:23;8.1;;;3.6;;
50165;SDS011;36071;48.140;11.516;2023-06-14T21:49:23;7.0;;;3.7;;
50165;SDS011;36071;48.140;11.516;2023-06-14T21:54:23;4.7;;;3.7;;
50165;SDS011;36071;48.140;11.516;2023-06-14T21:59:23;6.8;;;3.7;;
50165;SDS011;36071;48.140;11.516;2023-06-14T22:04:23;5.8;;;3.7;;
50165;SDS011;36071;48.140;11.516;2023-06-14T22:09:23;9.0;;;3.6;;
50165;SDS011;36071;48.140;11.516;2023-06-14T22:14:23;4.9;;;3.7;;
50165;SDS011;36071;48.140;11.516;2023-06-14T22:19:22;8.9;;;4.0;;
50165;SDS011;36071;48.140;11.516;2023-06-14T22:24:23;6.7;;;3.6;;
50165;SDS011;36071;48.140;11.516;2023-06-14T22:29:23;8.1;;;3.6;;
50165;SDS011;36071;48.140;11.516;2023-06-14T22:34:23;9.3;;;3.3;;
50165;SDS011;36071;48.140;11.516;2023-06-14T22:39:23;8.5;;;3.9;;
50165;SDS011;36071;48.140;11.516;2023-06-14T22:44:23;8.7;;;4.2;;
50165;SDS011;36071;48.140;11.516;2023-06-14T22:49:23;5.2;;;3.5;;
50165;SDS011;36071;48.140;11.516;2023-06-14T22:54:23;6.2;;;3.4;;
50165;SDS011;36071;48.140;11.516;2023-06-14T22:59:23;7.8;;;3.2;;
50165;SDS011;36071;48.140;11.516;2023-06-14T23:04:23;6.5;;;3.4;;
50165;SDS011;36071;48.140;11.516;2023-06-14T23:09:23;5.6;;;3.3;;
50165;SDS011;36071;48.140;11.516;2023-06-14T23:14:23;5.4;;;3.5;;
50165;SDS011;36071;48.140;11.516;2023-06-14T23:19:23;5.3;;;3.7;;
50165;SDS011;36071;48.140;11.516;2023-06-14T23:24:23;5.0;;;3.9;;
50165;SDS011;36071;48.140;11.516;2023-06-14T23:29:23;6.0;;;3.6;;
50165;SDS011;36071;48.140;11.516;2023-06-14T23:34:23;8.6;;;4.1;;
50165;SDS011;36071;48.140;11.516;2023-06-14T23:39:23;7.5;;;4.5;;
50165;SDS011;36071;48.140;11.516;2023-06-14T23:44:23;5.7;;;3.8;;
50165;SDS011;36071;48.140;11.516;2023-06-14T23:49:23;8.8;;;3.7;;
50165;SDS011;36071;48.140;11.516;2023-06-14T23:54:23;4.6;;;3.6;;
50165;SDS011;36071;48.140;11.516;2023-06-14T23:59:23;6.6;;;3.6;;
